Time;durP1;ratioP1;P1;durP2;ratioP2;P2;SDS_P1;SDS_P2;PMS_P1;PMS_P2;Temp;Humidity;BMP_temperature;BMP_pressure;BME280_temperature;BME280_humidity;BME280_pressure;Samples;Min_cycle;Max_cycle;Signal;HPM_P1;HPM_P2
2024/01/12 00:00:50;;;;;;;15.77;4.72;;;0.00;94.90;;;;;;5015720;28;20066;-39
2024/01/12 00:03:17;;;;;;;6.47;3.80;;;0.10;95.00;;;;;;5010909;28;20030;-42
2024/01/12 00:05:45;;;;;;;16.30;4.22;;;0.20;95.10;;;;;;5011444;28;20105;-39
2024/01/12 00:08:12;;;;;;;47.45;5.32;;;0.30;95.20;;;;;;5011012;28;20455;-40
2024/01/12 00:10:39;;;;;;;25.35;3.35;;;0.50;95.50;;;;;;5010550;28;20026;-41
2024/01/12 00:13:08;;;;;;;25.80;3.65;;;0.50;95.50;;;;;;4993136;28;20034;-40
2024/01/12 00:15:35;;;;;;;77.93;6.50;;;0.60;95.60;;;;;;5010283;28;20125;-40
2024/01/12 00:18:01;;;;;;;37.33;4.15;;;0.70;95.60;;;;;;5010253;28;20644;-42
2024/01/12 00:20:28;;;;;;;28.88;4.72;;;0.70;95.70;;;;;;5010238;28;20083;-42
2024/01/12 00:22:58;;;;;;;48.88;5.28;;;0.70;95.80;;;;;;5011731;28;20026;-41
2024/01/12 00:25:25;;;;;;;70.60;8.20;;;0.70;95.90;;;;;;5009844;28;20026;-41
2024/01/12 00:27:51;;;;;;;29.23;5.65;;;0.80;96.00;;;;;;5009887;28;20033;-42
2024/01/12 00:30:18;;;;;;;105.28;9.20;;;0.80;96.00;;;;;;5010504;28;20493;-42
2024/01/12 00:32:45;;;;;;;83.10;8.73;;;0.90;96.10;;;;;;5010355;28;20026;-43
2024/01/12 00:35:13;;;;;;;66.38;9.57;;;0.90;96.10;;;;;;4993241;28;20469;-42
2024/01/12 00:37:42;;;;;;;46.67;6.68;;;0.90;96.20;;;;;;5014188;27;20026;-42
2024/01/12 00:40:11;;;;;;;35.58;7.35;;;0.90;96.20;;;;;;5069256;28;20038;-44
2024/01/12 00:42:38;;;;;;;107.15;11.25;;;0.90;96.20;;;;;;5011159;28;20419;-42
2024/01/12 00:45:12;;;;;;;18.58;6.55;;;0.90;96.30;;;;;;5010783;28;20062;-43
2024/01/12 00:47:37;;;;;;;39.78;7.25;;;0.90;96.30;;;;;;5011438;28;20032;-44
2024/01/12 00:50:03;;;;;;;95.22;11.10;;;0.90;96.30;;;;;;5009769;28;20033;-44
2024/01/12 00:52:30;;;;;;;112.10;15.00;;;0.90;96.40;;;;;;5011007;28;20312;-45
2024/01/12 00:54:59;;;;;;;85.40;10.13;;;0.90;96.40;;;;;;5010986;28;20093;-46
2024/01/12 00:57:26;;;;;;;102.55;13.07;;;0.90;96.50;;;;;;5011008;28;20385;-45
2024/01/12 00:59:53;;;;;;;101.90;12.57;;;0.90;96.50;;;;;;5010830;28;20133;-47
2024/01/12 01:02:20;;;;;;;101.15;14.40;;;1.00;96.50;;;;;;5010674;28;20018;-49
2024/01/12 01:04:47;;;;;;;72.90;12.75;;;0.90;96.50;;;;;;5013176;28;20034;-49
2024/01/12 01:07:14;;;;;;;115.13;14.82;;;0.90;96.50;;;;;;5030446;28;20039;-52
2024/01/12 01:09:43;;;;;;;106.63;17.13;;;1.00;96.50;;;;;;5013653;28;20079;-49
2024/01/12 01:12:08;;;;;;;45.50;10.00;;;1.00;96.60;;;;;;5010791;28;20038;-50
2024/01/12 01:14:35;;;;;;;57.30;12.43;;;1.00;96.60;;;;;;5016012;28;20092;-49
2024/01/12 01:17:02;;;;;;;27.45;10.63;;;1.00;96.60;;;;;;5023780;28;20036;-51
2024/01/12 01:19:29;;;;;;;71.53;14.02;;;1.00;96.70;;;;;;4993164;28;20018;-52
2024/01/12 01:21:55;;;;;;;39.92;13.07;;;1.00;96.70;;;;;;5010517;28;20037;-50
2024/01/12 01:24:21;;;;;;;75.40;14.10;;;1.00;96.70;;;;;;5010333;28;20034;-51
2024/01/12 01:26:50;;;;;;;108.25;15.35;;;1.10;96.70;;;;;;5010296;28;20026;-52
2024/01/12 01:29:16;;;;;;;76.80;14.25;;;1.00;96.70;;;;;;5017225;28;20384;-50
2024/01/12 01:31:41;;;;;;;70.25;14.10;;;1.10;96.80;;;;;;5029751;28;20094;-53
2024/01/12 01:34:11;;;;;;;39.53;13.23;;;1.10;96.80;;;;;;5019204;28;20517;-51
2024/01/12 01:36:38;;;;;;;53.88;15.23;;;1.20;96.80;;;;;;5010204;28;20026;-55
2024/01/12 01:39:05;;;;;;;31.65;12.13;;;1.10;96.90;;;;;;5045789;27;20060;-53
2024/01/12 01:41:35;;;;;;;85.05;15.77;;;1.20;96.80;;;;;;5010124;28;20029;-54
2024/01/12 01:44:02;;;;;;;68.40;16.95;;;1.20;96.80;;;;;;4995642;28;20339;-53
2024/01/12 01:46:31;;;;;;;38.17;11.40;;;1.20;96.80;;;;;;5010027;28;20069;-52
2024/01/12 01:48:59;;;;;;;53.00;14.65;;;1.20;96.90;;;;;;5010361;28;20374;-50
2024/01/12 01:51:26;;;;;;;79.90;13.57;;;1.20;96.90;;;;;;5009964;28;20029;-49
2024/01/12 01:53:56;;;;;;;86.93;15.02;;;1.20;96.90;;;;;;5009922;28;20026;-49
2024/01/12 01:56:23;;;;;;;27.17;11.48;;;1.20;96.90;;;;;;5010064;28;20026;-51
2024/01/12 01:58:50;;;;;;;29.88;9.75;;;1.20;96.90;;;;;;4992533;28;20071;-49
2024/01/12 02:01:22;;;;;;;55.85;11.38;;;1.20;96.90;;;;;;5009460;28;20034;-49
2024/01/12 02:03:48;;;;;;;63.95;10.30;;;1.20;96.90;;;;;;5010092;28;20086;-52
2024/01/12 02:06:16;;;;;;;30.83;8.20;;;1.20;96.90;;;;;;5009981;28;20029;-49
2024/01/12 02:08:43;;;;;;;52.42;10.55;;;1.10;96.90;;;;;;4992315;28;20040;-49
2024/01/12 02:11:10;;;;;;;92.72;11.32;;;1.10;96.90;;;;;;5009391;28;20022;-51
2024/01/12 02:13:41;;;;;;;57.83;9.05;;;1.20;96.90;;;;;;5009120;28;20105;-49
2024/01/12 02:16:08;;;;;;;36.30;8.43;;;1.10;97.00;;;;;;5009165;28;20129;-49
2024/01/12 02:18:35;;;;;;;94.07;12.30;;;1.20;97.00;;;;;;5022597;28;20112;-50
2024/01/12 02:21:04;;;;;;;40.45;9.57;;;1.20;97.00;;;;;;4997499;28;20162;-50
2024/01/12 02:23:32;;;;;;;28.85;8.88;;;1.20;97.00;;;;;;5012683;28;20467;-52
2024/01/12 02:25:57;;;;;;;22.48;8.63;;;1.20;97.00;;;;;;4991901;28;20034;-50
2024/01/12 02:28:26;;;;;;;40.75;10.35;;;1.20;97.00;;;;;;5011812;28;20591;-49
2024/01/12 02:30:53;;;;;;;35.45;10.02;;;1.30;97.10;;;;;;5008925;28;20033;-49
2024/01/12 02:33:19;;;;;;;36.67;11.95;;;1.30;97.10;;;;;;5008889;28;20045;-53
2024/01/12 02:35:46;;;;;;;50.08;10.88;;;1.30;97.10;;;;;;5008849;28;20022;-50
2024/01/12 02:38:13;;;;;;;35.80;11.48;;;1.30;97.10;;;;;;5041518;28;20027;-54
2024/01/12 02:40:40;;;;;;;34.70;10.10;;;1.30;97.10;;;;;;5073245;28;20078;-53
2024/01/12 02:43:07;;;;;;;25.35;10.55;;;1.30;97.10;;;;;;5025963;28;20042;-53
2024/01/12 02:45:34;;;;;;;46.65;10.98;;;1.20;97.10;;;;;;5011590;28;20074;-52
2024/01/12 02:48:00;;;;;;;49.25;12.32;;;1.30;97.10;;;;;;5028988;28;20039;-51
2024/01/12 02:50:30;;;;;;;17.02;9.18;;;1.30;97.10;;;;;;5010634;28;20030;-50
2024/01/12 02:52:55;;;;;;;28.55;10.95;;;1.30;97.10;;;;;;5009271;28;20026;-51
2024/01/12 02:55:21;;;;;;;43.55;12.55;;;1.30;97.20;;;;;;5009150;28;20083;-50
2024/01/12 02:57:47;;;;;;;33.97;12.00;;;1.40;97.20;;;;;;4993103;28;20427;-52
2024/01/12 03:00:14;;;;;;;69.32;13.98;;;1.40;97.10;;;;;;5009124;28;20112;-52
2024/01/12 03:02:40;;;;;;;82.70;14.38;;;1.30;97.10;;;;;;5009231;28;20087;-53
2024/01/12 03:05:06;;;;;;;59.53;15.25;;;1.30;97.10;;;;;;5010184;28;20034;-52
2024/01/12 03:07:33;;;;;;;29.40;12.48;;;1.30;97.20;;;;;;4991715;28;20125;-50
2024/01/12 03:10:00;;;;;;;91.85;16.33;;;1.30;97.20;;;;;;5009086;28;20090;-53
2024/01/12 03:12:27;;;;;;;34.35;12.60;;;1.40;97.20;;;;;;5008643;28;20045;-54
2024/01/12 03:14:54;;;;;;;27.63;11.77;;;1.40;97.20;;;;;;5011986;28;20026;-52
2024/01/12 03:17:20;;;;;;;26.52;10.88;;;1.40;97.30;;;;;;5012525;28;20030;-50
2024/01/12 03:19:49;;;;;;;37.33;12.45;;;1.40;97.20;;;;;;5012687;28;20068;-50
2024/01/12 03:22:16;;;;;;;25.75;10.63;;;1.40;97.20;;;;;;5012080;28;20018;-50
2024/01/12 03:24:45;;;;;;;34.78;12.25;;;1.40;97.20;;;;;;5025886;28;20029;-54
2024/01/12 03:27:11;;;;;;;42.67;12.82;;;1.40;97.30;;;;;;4995051;28;20029;-50
2024/01/12 03:29:38;;;;;;;36.72;13.00;;;1.50;97.30;;;;;;5012287;28;20086;-51
2024/01/12 03:32:05;;;;;;;39.75;13.30;;;1.50;97.30;;;;;;5012200;28;20064;-53
2024/01/12 03:34:33;;;;;;;31.83;13.43;;;1.50;97.30;;;;;;5011961;28;20014;-53
2024/01/12 03:37:00;;;;;;;30.70;13.13;;;1.50;97.30;;;;;;5023616;28;20057;-52
2024/01/12 03:39:27;;;;;;;38.83;15.40;;;1.60;97.30;;;;;;5041880;28;20331;-52
2024/01/12 03:41:56;;;;;;;28.48;12.48;;;1.60;97.30;;;;;;5012341;28;20388;-53
2024/01/12 03:44:22;;;;;;;29.58;12.18;;;1.70;97.30;;;;;;5011969;28;20050;-53
2024/01/12 03:46:49;;;;;;;25.45;11.77;;;1.70;97.30;;;;;;5011865;28;20026;-51
2024/01/12 03:49:18;;;;;;;27.13;11.73;;;1.70;97.30;;;;;;5011960;28;20359;-51
2024/01/12 03:51:48;;;;;;;38.13;12.65;;;1.70;97.40;;;;;;5011696;28;20054;-52
2024/01/12 03:54:15;;;;;;;27.60;10.40;;;1.70;97.40;;;;;;4994886;28;20090;-52
2024/01/12 03:56:42;;;;;;;27.50;11.13;;;1.80;97.40;;;;;;5012083;28;20025;-50
2024/01/12 03:59:11;;;;;;;29.08;11.23;;;1.90;97.40;;;;;;5014567;28;20066;-50
2024/01/12 04:01:42;;;;;;;36.58;11.88;;;1.90;97.40;;;;;;5005051;28;20057;-51
2024/01/12 04:04:09;;;;;;;27.13;11.40;;;1.90;97.40;;;;;;5011719;28;20038;-51
2024/01/12 04:06:40;;;;;;;36.92;12.68;;;1.90;97.40;;;;;;4994336;28;20057;-50
2024/01/12 04:09:10;;;;;;;23.30;11.27;;;1.90;97.40;;;;;;5011628;28;20034;-53
2024/01/12 04:11:37;;;;;;;33.03;11.30;;;1.90;97.40;;;;;;5021472;28;20022;-51
2024/01/12 04:14:04;;;;;;;24.58;9.88;;;1.90;97.40;;;;;;5012069;28;20083;-52
2024/01/12 04:16:30;;;;;;;25.52;11.30;;;1.90;97.40;;;;;;5011030;28;20022;-52
2024/01/12 04:18:59;;;;;;;34.95;10.40;;;1.90;97.40;;;;;;5010972;28;20057;-52
2024/01/12 04:21:28;;;;;;;20.85;8.95;;;1.90;97.40;;;;;;5011438;28;20084;-52
2024/01/12 04:23:55;;;;;;;32.08;9.45;;;1.90;97.40;;;;;;5019842;28;20037;-50
2024/01/12 04:26:21;;;;;;;24.42;10.23;;;1.90;97.50;;;;;;5027152;28;20025;-51
2024/01/12 04:28:47;;;;;;;21.08;8.77;;;1.90;97.40;;;;;;5011581;28;20022;-52
2024/01/12 04:31:14;;;;;;;20.50;7.38;;;1.90;97.40;;;;;;5013277;28;20029;-50
2024/01/12 04:33:43;;;;;;;21.17;8.68;;;1.90;97.40;;;;;;5011367;28;20462;-50
2024/01/12 04:36:09;;;;;;;20.65;8.32;;;1.90;97.40;;;;;;5011268;28;20037;-50
2024/01/12 04:38:36;;;;;;;16.40;8.70;;;1.90;97.40;;;;;;5048867;27;20046;-52
2024/01/12 04:41:03;;;;;;;20.02;7.88;;;1.90;97.40;;;;;;5011212;28;20137;-52
2024/01/12 04:43:30;;;;;;;18.92;7.93;;;1.90;97.40;;;;;;5011195;28;20049;-54
2024/01/12 04:45:57;;;;;;;21.02;9.55;;;1.90;97.40;;;;;;5030925;28;20117;-52
2024/01/12 04:48:23;;;;;;;26.55;11.85;;;1.90;97.40;;;;;;5011148;28;20032;-53
2024/01/12 04:50:48;;;;;;;63.63;27.50;;;1.90;97.40;;;;;;5010807;28;20674;-53
2024/01/12 04:53:15;;;;;;;62.97;28.00;;;1.90;97.40;;;;;;5011026;28;20033;-52
2024/01/12 04:55:41;;;;;;;56.47;23.25;;;1.90;97.40;;;;;;5013067;28;20076;-52
2024/01/12 04:58:07;;;;;;;52.92;23.02;;;1.90;97.40;;;;;;5010937;28;20042;-55
2024/01/12 05:00:34;;;;;;;47.90;22.85;;;1.90;97.40;;;;;;4994369;28;20128;-52
2024/01/12 05:03:02;;;;;;;56.40;21.00;;;1.90;97.40;;;;;;4993644;28;20383;-51
2024/01/12 05:05:31;;;;;;;31.63;15.27;;;1.80;97.30;;;;;;5010837;28;20482;-56
2024/01/12 05:07:57;;;;;;;40.25;15.98;;;1.80;97.40;;;;;;5010891;28;20041;-55
2024/01/12 05:10:26;;;;;;;37.00;14.05;;;1.80;97.40;;;;;;5010242;28;20348;-58
2024/01/12 05:12:55;;;;;;;27.60;10.77;;;1.80;97.40;;;;;;5010891;28;20105;-57
2024/01/12 05:15:22;;;;;;;26.05;12.30;;;1.80;97.40;;;;;;5010393;28;20022;-54
2024/01/12 05:17:49;;;;;;;25.92;12.20;;;1.90;97.40;;;;;;5010638;28;20393;-52
2024/01/12 05:20:16;;;;;;;21.70;11.20;;;1.80;97.40;;;;;;5010425;28;20454;-57
2024/01/12 05:22:42;;;;;;;13.98;8.02;;;1.90;97.40;;;;;;5010400;28;20105;-58
2024/01/12 05:25:09;;;;;;;17.25;8.88;;;1.80;97.30;;;;;;5010325;28;20051;-57
2024/01/12 05:27:36;;;;;;;19.35;9.75;;;1.80;97.40;;;;;;5010282;28;20079;-54
2024/01/12 05:30:05;;;;;;;33.35;10.10;;;1.80;97.40;;;;;;5012413;28;20037;-58
2024/01/12 05:32:32;;;;;;;28.13;11.32;;;1.90;97.40;;;;;;5010234;28;20336;-57
2024/01/12 05:34:58;;;;;;;30.42;11.63;;;1.80;97.40;;;;;;5017466;28;20066;-55
2024/01/12 05:37:24;;;;;;;20.70;9.40;;;1.80;97.30;;;;;;4992157;28;20045;-56
2024/01/12 05:39:54;;;;;;;42.08;9.32;;;1.90;97.40;;;;;;5122183;27;20046;-57
2024/01/12 05:42:20;;;;;;;18.13;7.80;;;1.80;97.30;;;;;;5012270;28;20389;-56
2024/01/12 05:44:47;;;;;;;47.08;9.35;;;1.80;97.30;;;;;;5028276;28;20049;-58
2024/01/12 05:47:14;;;;;;;10.85;6.20;;;1.80;97.30;;;;;;5015562;28;20034;-58
2024/01/12 05:49:41;;;;;;;21.85;6.93;;;1.80;97.30;;;;;;5016200;28;20045;-59
2024/01/12 05:52:08;;;;;;;27.17;6.30;;;1.80;97.30;;;;;;5016194;28;20331;-57
2024/01/12 05:54:37;;;;;;;10.15;5.80;;;1.80;97.40;;;;;;5022155;28;20036;-59
2024/01/12 05:57:06;;;;;;;10.02;5.07;;;1.70;97.30;;;;;;5017883;28;20379;-58
2024/01/12 05:59:33;;;;;;;10.70;5.25;;;1.70;97.30;;;;;;5019138;28;20038;-59
2024/01/12 06:01:59;;;;;;;12.88;5.57;;;1.70;97.40;;;;;;5020516;28;20366;-58
2024/01/12 06:04:26;;;;;;;10.30;6.13;;;1.70;97.30;;;;;;4992817;28;20113;-58
2024/01/12 06:06:53;;;;;;;14.70;6.80;;;1.70;97.30;;;;;;5008673;28;20042;-56
2024/01/12 06:09:20;;;;;;;12.20;5.65;;;1.70;97.30;;;;;;5012346;28;20026;-57
2024/01/12 06:11:46;;;;;;;18.85;7.75;;;1.70;97.30;;;;;;5018406;28;20026;-54
2024/01/12 06:14:16;;;;;;;15.27;7.38;;;1.70;97.30;;;;;;5018912;28;20025;-57
2024/01/12 06:16:43;;;;;;;53.33;10.02;;;1.70;97.20;;;;;;5022890;28;20026;-58
2024/01/12 06:19:11;;;;;;;33.22;8.95;;;1.70;97.20;;;;;;5024095;28;20082;-56
2024/01/12 06:21:40;;;;;;;41.08;11.57;;;1.60;97.20;;;;;;5006451;28;20025;-58
2024/01/12 06:24:09;;;;;;;16.85;7.90;;;1.60;97.20;;;;;;5025062;27;20454;-57
2024/01/12 06:26:36;;;;;;;34.00;9.43;;;1.60;97.20;;;;;;5024119;28;20504;-54
2024/01/12 06:29:01;;;;;;;12.00;7.88;;;1.60;97.20;;;;;;5022928;28;20094;-58
2024/01/12 06:31:31;;;;;;;21.48;9.55;;;1.50;97.20;;;;;;5020763;28;20033;-56
2024/01/12 06:33:58;;;;;;;36.22;11.32;;;1.60;97.20;;;;;;5013034;28;20018;-55
2024/01/12 06:36:24;;;;;;;18.48;10.80;;;1.50;97.20;;;;;;4992298;28;20026;-58
2024/01/12 06:38:55;;;;;;;16.58;9.43;;;1.50;97.20;;;;;;5023447;28;20029;-57
2024/01/12 06:41:24;;;;;;;18.02;9.77;;;1.50;97.20;;;;;;5018560;28;20040;-55
2024/01/12 06:43:49;;;;;;;16.98;9.70;;;1.50;97.20;;;;;;5020658;28;20030;-57
2024/01/12 06:46:16;;;;;;;20.10;10.50;;;1.50;97.20;;;;;;5019232;28;20132;-59
2024/01/12 06:48:42;;;;;;;17.23;9.60;;;1.50;97.20;;;;;;5011960;28;20030;-57
2024/01/12 06:51:08;;;;;;;24.60;12.10;;;1.50;97.20;;;;;;4999070;28;20034;-56
2024/01/12 06:53:35;;;;;;;25.25;11.50;;;1.50;97.30;;;;;;5024164;27;20018;-57
2024/01/12 06:56:03;;;;;;;21.55;9.93;;;1.60;97.30;;;;;;5013222;28;20026;-54
2024/01/12 06:58:35;;;;;;;21.15;10.20;;;1.60;97.30;;;;;;5019730;28;20029;-58
2024/01/12 07:01:03;;;;;;;20.42;9.70;;;1.60;97.30;;;;;;5020827;28;20025;-53
2024/01/12 07:03:30;;;;;;;26.73;10.38;;;1.70;97.30;;;;;;5022882;28;20045;-56
2024/01/12 07:05:59;;;;;;;26.15;12.10;;;1.70;97.30;;;;;;5024917;28;20040;-56
2024/01/12 07:08:25;;;;;;;22.75;10.80;;;1.70;97.30;;;;;;5015105;28;20110;-54
2024/01/12 07:10:52;;;;;;;25.60;12.55;;;1.80;97.30;;;;;;4993855;28;20034;-54
2024/01/12 07:13:19;;;;;;;28.48;13.60;;;1.80;97.30;;;;;;5012072;28;20033;-54
2024/01/12 07:15:46;;;;;;;23.83;10.45;;;1.80;97.30;;;;;;5004405;28;20060;-55
2024/01/12 07:18:13;;;;;;;22.90;11.40;;;1.90;97.30;;;;;;5014694;28;20041;-58
2024/01/12 07:20:39;;;;;;;32.97;11.27;;;1.90;97.30;;;;;;5022458;28;20474;-53
2024/01/12 07:23:06;;;;;;;24.58;12.73;;;1.90;97.30;;;;;;5016502;28;20102;-56
2024/01/12 07:25:33;;;;;;;28.38;13.80;;;1.90;97.30;;;;;;5020417;28;20049;-57
2024/01/12 07:28:03;;;;;;;25.55;13.18;;;1.90;97.30;;;;;;5020601;28;20086;-54
2024/01/12 07:30:29;;;;;;;22.63;12.15;;;1.90;97.30;;;;;;5015825;28;20072;-53
2024/01/12 07:32:56;;;;;;;27.70;13.43;;;1.90;97.30;;;;;;5014196;28;20022;-57
2024/01/12 07:35:22;;;;;;;20.48;11.57;;;1.90;97.30;;;;;;5012580;28;20049;-55
2024/01/12 07:37:48;;;;;;;24.98;10.30;;;1.90;97.20;;;;;;5024790;27;20049;-55
2024/01/12 07:40:15;;;;;;;21.25;9.18;;;1.90;97.30;;;;;;5098845;27;20033;-55
2024/01/12 07:42:43;;;;;;;22.55;8.18;;;1.90;97.30;;;;;;5011977;28;20026;-56
2024/01/12 07:45:13;;;;;;;23.95;8.55;;;1.90;97.20;;;;;;5025207;28;20046;-54
2024/01/12 07:47:39;;;;;;;23.17;9.63;;;1.90;97.30;;;;;;4991082;28;20023;-56
2024/01/12 07:50:07;;;;;;;24.88;9.45;;;1.90;97.30;;;;;;4993183;28;20067;-56
2024/01/12 07:52:34;;;;;;;22.30;9.10;;;1.90;97.30;;;;;;4994217;28;20052;-56
2024/01/12 07:55:02;;;;;;;19.77;8.15;;;1.90;97.30;;;;;;5001542;28;20041;-52
2024/01/12 07:57:28;;;;;;;26.65;7.82;;;2.00;97.30;;;;;;5003770;28;20101;-55
2024/01/12 07:59:56;;;;;;;22.08;6.95;;;1.90;97.30;;;;;;5002997;28;20450;-56
2024/01/12 08:02:24;;;;;;;22.45;7.20;;;1.90;97.20;;;;;;4997078;28;20022;-56
2024/01/12 08:04:50;;;;;;;14.63;6.97;;;2.00;97.30;;;;;;4998082;28;20116;-55
2024/01/12 08:07:17;;;;;;;16.58;6.93;;;2.00;97.30;;;;;;5004617;28;20443;-53
2024/01/12 08:09:43;;;;;;;21.38;7.00;;;2.00;97.30;;;;;;4998398;28;20032;-51
2024/01/12 08:12:10;;;;;;;11.38;5.57;;;2.10;97.30;;;;;;4998686;28;20026;-51
2024/01/12 08:14:37;;;;;;;18.83;7.30;;;2.10;97.30;;;;;;5004256;28;20347;-57
2024/01/12 08:17:06;;;;;;;13.25;5.35;;;2.10;97.20;;;;;;5003128;28;20420;-54
2024/01/12 08:19:32;;;;;;;19.67;9.27;;;2.10;97.30;;;;;;5002221;28;20038;-52
2024/01/12 08:21:58;;;;;;;26.23;8.45;;;2.10;97.30;;;;;;5000434;28;20030;-56
2024/01/12 08:24:25;;;;;;;17.40;6.65;;;2.20;97.30;;;;;;5061572;28;20041;-56
2024/01/12 08:26:51;;;;;;;16.33;8.15;;;2.20;97.30;;;;;;4992439;28;20034;-54
2024/01/12 08:29:18;;;;;;;17.10;7.32;;;2.20;97.30;;;;;;5000206;28;21032;-57
2024/01/12 08:31:43;;;;;;;18.85;8.35;;;2.20;97.30;;;;;;5002011;28;20022;-53
2024/01/12 08:34:09;;;;;;;24.08;7.72;;;2.30;97.30;;;;;;5000345;28;20102;-57
2024/01/12 08:36:36;;;;;;;18.38;6.63;;;2.30;97.20;;;;;;5002669;28;20058;-53
2024/01/12 08:39:03;;;;;;;21.38;5.40;;;2.20;97.20;;;;;;5002038;28;20030;-54
2024/01/12 08:41:32;;;;;;;15.68;5.22;;;2.30;97.30;;;;;;4995792;28;20695;-52
2024/01/12 08:43:58;;;;;;;15.15;3.83;;;2.30;97.30;;;;;;4951754;28;1159599;-53
2024/01/12 08:46:25;;;;;;;15.25;4.38;;;2.30;97.30;;;;;;5010709;28;20087;-55
2024/01/12 08:48:54;;;;;;;16.00;4.38;;;2.40;97.40;;;;;;5014439;28;20096;-53
2024/01/12 08:51:23;;;;;;;19.90;4.55;;;2.50;97.40;;;;;;5021456;28;20075;-55
2024/01/12 08:53:50;;;;;;;20.37;5.03;;;2.50;97.30;;;;;;5011945;28;20025;-52
2024/01/12 08:56:17;;;;;;;20.05;5.03;;;2.60;97.30;;;;;;5016750;27;20048;-51
2024/01/12 08:58:44;;;;;;;27.92;5.85;;;2.70;97.30;;;;;;5016563;28;20022;-51
2024/01/12 09:01:15;;;;;;;17.98;5.75;;;2.70;97.30;;;;;;5009072;28;20087;-53
2024/01/12 09:03:42;;;;;;;21.98;7.85;;;2.80;97.30;;;;;;5009478;28;20026;-54
2024/01/12 09:06:09;;;;;;;21.67;6.90;;;2.80;97.20;;;;;;5010139;28;20040;-50
2024/01/12 09:08:35;;;;;;;33.47;5.93;;;2.80;97.20;;;;;;5012852;28;20025;-54
2024/01/12 09:11:05;;;;;;;31.27;4.95;;;2.70;97.10;;;;;;5008693;28;20026;-50
2024/01/12 09:13:32;;;;;;;22.23;3.97;;;2.60;97.20;;;;;;5010025;28;20026;-52
2024/01/12 09:15:59;;;;;;;27.30;4.32;;;2.70;97.20;;;;;;5009113;28;20030;-50
2024/01/12 09:18:25;;;;;;;19.70;5.15;;;2.70;97.30;;;;;;5009611;28;20021;-52
2024/01/12 09:20:52;;;;;;;20.25;3.80;;;2.80;97.30;;;;;;5009579;28;20064;-51
2024/01/12 09:23:19;;;;;;;22.30;5.78;;;2.90;97.30;;;;;;5011418;28;20021;-52
2024/01/12 09:25:47;;;;;;;22.00;5.25;;;2.90;97.30;;;;;;5009587;28;20029;-52
2024/01/12 09:28:13;;;;;;;12.90;3.45;;;3.00;97.30;;;;;;5011489;28;20386;-50
2024/01/12 09:30:42;;;;;;;10.68;3.85;;;3.10;97.30;;;;;;5009289;28;20099;-51
2024/01/12 09:33:15;;;;;;;18.38;5.40;;;3.00;97.20;;;;;;5009243;28;20071;-53
2024/01/12 09:35:44;;;;;;;23.30;6.15;;;3.00;97.20;;;;;;5009846;28;20158;-51
2024/01/12 09:38:10;;;;;;;34.55;5.75;;;3.10;97.30;;;;;;5040130;27;20420;-53
2024/01/12 09:40:36;;;;;;;29.95;5.40;;;3.20;97.30;;;;;;5010764;28;20064;-50
2024/01/12 09:43:12;;;;;;;22.33;4.68;;;3.30;97.30;;;;;;4992448;28;20125;-53
2024/01/12 09:45:44;;;;;;;22.40;4.75;;;3.30;97.30;;;;;;5038898;28;20057;-53
2024/01/12 09:48:12;;;;;;;27.35;7.50;;;3.40;97.30;;;;;;4989922;28;20085;-56
2024/01/12 09:50:40;;;;;;;27.38;7.22;;;3.40;97.30;;;;;;5066056;28;20060;-52
2024/01/12 09:53:08;;;;;;;32.63;8.85;;;3.40;97.30;;;;;;5071590;28;20383;-55
2024/01/12 09:55:35;;;;;;;36.10;9.68;;;3.40;97.20;;;;;;5003457;28;20034;-53
2024/01/12 09:58:04;;;;;;;42.42;9.82;;;3.40;97.20;;;;;;4996756;28;20034;-51
2024/01/12 10:00:35;;;;;;;27.58;9.25;;;3.40;97.20;;;;;;4997993;28;20105;-54
2024/01/12 10:03:05;;;;;;;27.83;10.55;;;3.40;97.30;;;;;;4998790;28;20497;-55
2024/01/12 10:05:31;;;;;;;28.92;9.48;;;3.30;97.20;;;;;;4995021;28;20042;-52
2024/01/12 10:07:58;;;;;;;25.42;6.78;;;3.30;97.20;;;;;;4992193;28;20071;-59
2024/01/12 10:10:24;;;;;;;25.58;6.25;;;3.30;97.20;;;;;;5068464;28;20105;-55
2024/01/12 10:12:51;;;;;;;27.63;5.40;;;3.40;97.30;;;;;;4995000;28;20110;-54
2024/01/12 10:15:18;;;;;;;33.28;5.05;;;3.40;97.30;;;;;;4989890;28;20030;-57
2024/01/12 10:17:44;;;;;;;28.02;5.47;;;3.50;97.30;;;;;;4989737;28;20405;-54
2024/01/12 10:20:13;;;;;;;29.30;5.55;;;3.50;97.30;;;;;;4990310;28;20036;-56
2024/01/12 10:22:40;;;;;;;23.77;4.22;;;3.60;97.30;;;;;;5008999;28;20060;-55
2024/01/12 10:25:07;;;;;;;18.08;4.05;;;3.60;97.30;;;;;;5009398;28;20061;-54
2024/01/12 10:27:34;;;;;;;24.05;5.35;;;3.70;97.30;;;;;;5008928;28;20121;-54
2024/01/12 10:30:01;;;;;;;32.75;6.90;;;3.80;97.30;;;;;;4989958;28;20038;-53
2024/01/12 10:32:28;;;;;;;27.58;5.75;;;3.80;97.30;;;;;;4989427;28;20042;-54
2024/01/12 10:34:54;;;;;;;34.15;5.28;;;3.90;97.30;;;;;;4989995;28;20506;-52
2024/01/12 10:37:22;;;;;;;34.08;5.93;;;3.90;97.20;;;;;;4995626;28;20567;-55
2024/01/12 10:39:50;;;;;;;23.55;4.85;;;3.90;97.20;;;;;;4993872;28;20026;-52
2024/01/12 10:42:20;;;;;;;29.25;6.13;;;3.90;97.10;;;;;;4988957;28;20037;-54
2024/01/12 10:44:50;;;;;;;31.55;6.68;;;3.90;97.10;;;;;;4996914;28;20049;-53
2024/01/12 10:47:20;;;;;;;22.75;4.95;;;3.90;97.10;;;;;;5008855;28;20613;-51
2024/01/12 10:50:04;;;;;;;32.92;5.68;;;3.90;97.10;;;;;;4990998;28;20078;-51
2024/01/12 10:52:42;;;;;;;29.13;6.38;;;3.90;97.00;;;;;;5007989;28;20356;-54
2024/01/12 10:55:15;;;;;;;21.10;4.13;;;3.80;96.90;;;;;;5019445;28;20022;-50
2024/01/12 10:57:43;;;;;;;29.30;5.70;;;3.80;96.90;;;;;;5025337;28;20403;-51
2024/01/12 11:00:20;;;;;;;22.70;4.97;;;3.80;96.80;;;;;;5026267;28;20065;-49
2024/01/12 11:02:49;;;;;;;21.25;4.13;;;3.70;96.80;;;;;;5027239;28;20498;-49
2024/01/12 11:05:16;;;;;;;27.20;4.43;;;3.70;96.80;;;;;;5027821;28;20355;-50
2024/01/12 11:07:43;;;;;;;27.27;6.68;;;3.80;96.80;;;;;;5024988;28;20034;-49
2024/01/12 11:10:10;;;;;;;16.30;5.13;;;3.90;96.80;;;;;;4990454;28;20029;-48
2024/01/12 11:12:40;;;;;;;24.80;4.47;;;3.90;96.70;;;;;;5011810;28;20176;-52
2024/01/12 11:15:07;;;;;;;19.75;5.05;;;4.00;96.60;;;;;;5022730;28;20034;-48
2024/01/12 11:17:39;;;;;;;27.95;4.75;;;4.00;96.50;;;;;;5008460;28;20029;-50
2024/01/12 11:20:05;;;;;;;31.02;6.47;;;4.00;96.40;;;;;;5018872;28;20022;-48
2024/01/12 11:22:34;;;;;;;27.52;4.68;;;4.10;96.30;;;;;;5007986;28;20332;-48
2024/01/12 11:25:03;;;;;;;25.58;4.95;;;4.10;96.20;;;;;;5007864;28;20030;-49
2024/01/12 11:27:41;;;;;;;26.43;4.47;;;4.20;96.10;;;;;;5018969;28;20041;-47
2024/01/12 11:30:11;;;;;;;28.58;5.38;;;4.20;96.00;;;;;;5023420;28;20061;-48
2024/01/12 11:32:40;;;;;;;26.30;5.00;;;4.30;95.80;;;;;;5001580;28;20026;-47
2024/01/12 11:35:11;;;;;;;26.45;6.00;;;4.30;95.60;;;;;;5019222;28;20022;-46
2024/01/12 11:37:40;;;;;;;33.50;6.75;;;4.40;95.50;;;;;;5025491;27;20040;-47
2024/01/12 11:40:11;;;;;;;41.47;9.07;;;4.40;95.30;;;;;;5036331;27;20029;-49
2024/01/12 11:42:42;;;;;;;28.38;4.28;;;4.50;95.10;;;;;;5020419;28;20060;-47
2024/01/12 11:45:13;;;;;;;33.75;5.63;;;4.50;94.90;;;;;;5010963;28;20058;-46
2024/01/12 11:47:43;;;;;;;24.58;6.32;;;4.60;94.70;;;;;;5011335;28;20034;-46
2024/01/12 11:50:09;;;;;;;;;;;4.60;94.50;;;;;;5019808;28;20025;-46
2024/01/12 11:52:37;;;;;;;26.70;4.68;;;4.60;94.30;;;;;;5011156;28;19948;-49
2024/01/12 11:55:07;;;;;;;25.42;6.57;;;4.50;94.20;;;;;;5011657;28;20098;-45
2024/01/12 11:57:35;;;;;;;28.00;4.75;;;4.60;94.20;;;;;;5029471;28;20037;-45
2024/01/12 12:00:03;;;;;;;14.85;4.13;;;4.60;94.10;;;;;;5029856;28;20442;-46
2024/01/12 12:02:30;;;;;;;22.30;6.63;;;4.60;94.00;;;;;;5021069;28;20410;-47
2024/01/12 12:04:57;;;;;;;36.90;7.15;;;4.60;94.00;;;;;;5011354;28;20075;-45
2024/01/12 12:07:30;;;;;;;19.75;5.50;;;4.70;93.90;;;;;;5010777;28;20451;-47
2024/01/12 12:09:56;;;;;;;23.90;5.38;;;4.70;93.80;;;;;;5026125;28;20037;-46
2024/01/12 12:12:26;;;;;;;17.88;4.20;;;4.60;93.70;;;;;;5030562;28;20458;-46
2024/01/12 12:15:07;;;;;;;24.73;6.60;;;4.60;93.70;;;;;;5023957;28;20066;-45
2024/01/12 12:17:38;;;;;;;22.95;4.20;;;4.70;93.60;;;;;;5010848;28;20068;-49
2024/01/12 12:20:12;;;;;;;25.70;7.40;;;4.70;93.50;;;;;;5010515;28;20083;-45
2024/01/12 12:22:43;;;;;;;25.95;4.38;;;4.70;93.40;;;;;;5020330;28;20075;-44
2024/01/12 12:25:15;;;;;;;19.48;3.80;;;4.70;93.30;;;;;;5017853;28;20020;-45
2024/01/12 12:27:44;;;;;;;27.67;4.72;;;4.70;93.30;;;;;;5024724;28;20025;-46
2024/01/12 12:30:15;;;;;;;25.02;5.07;;;4.80;93.10;;;;;;5025312;28;20422;-45
2024/01/12 12:32:47;;;;;;;23.58;4.00;;;4.80;93.00;;;;;;5029502;28;20033;-47
2024/01/12 12:35:18;;;;;;;19.42;3.55;;;4.80;92.80;;;;;;5021568;28;20439;-46
2024/01/12 12:37:51;;;;;;;18.27;3.63;;;4.80;92.50;;;;;;5017921;27;20044;-46
2024/01/12 12:40:19;;;;;;;16.52;3.17;;;4.80;92.40;;;;;;5018847;27;20048;-48
2024/01/12 12:42:50;;;;;;;14.30;3.97;;;4.80;92.20;;;;;;5014606;28;20518;-47
2024/01/12 12:45:19;;;;;;;22.15;4.82;;;4.80;92.10;;;;;;5020890;28;20175;-46